AAL3521 KSFO-KLAS
Flight info
| Callsign | AAL3521 |
|---|---|
| Flight time | 1h 8m |
| Altitude | 35000 |
| Route | WESLA5 NTELL Q174 FLCHR COKTL4 |
| Aircraft | A321/M-SDE3FGHIRWY/LB1 |
Departure
| Time | 2026-05-07 18:12 |
|---|---|
| Airport | San Francisco International Airport (KSFO) |
Arrival
| Time | 2026-05-07 19:21 |
|---|---|
| Airport | Harry Reid International Airport (KLAS) |
| Time | Latitude | Longitude | Altitude | Speed | Heading |
|---|---|---|---|---|---|
| 2026-05-07 17:35 | 37.61183 | -122.38613 | 18 ft | 0 kts | 120° |
| 2026-05-07 17:58 | 37.61186 | -122.38620 | 16 ft | 4 kts | 120° |
| 2026-05-07 17:59 | 37.61199 | -122.38650 | 17 ft | 4 kts | 120° |
| 2026-05-07 17:59 | 37.61212 | -122.38679 | 20 ft | 4 kts | 120° |
| 2026-05-07 17:59 | 37.61224 | -122.38704 | 19 ft | 4 kts | 136° |
| 2026-05-07 17:59 | 37.61244 | -122.38715 | 21 ft | 4 kts | 198° |
| 2026-05-07 18:00 | 37.61262 | -122.38705 | 18 ft | 1 kts | 207° |
| 2026-05-07 18:00 | 37.61265 | -122.38703 | 18 ft | 0 kts | 207° |
| 2026-05-07 18:02 | 37.61263 | -122.38704 | 18 ft | 1 kts | 207° |
| 2026-05-07 18:02 | 37.61247 | -122.38715 | 18 ft | 5 kts | 207° |
| 2026-05-07 18:03 | 37.61202 | -122.38744 | 20 ft | 9 kts | 207° |
| 2026-05-07 18:03 | 37.61137 | -122.38788 | 20 ft | 11 kts | 208° |
| 2026-05-07 18:03 | 37.61063 | -122.38837 | 18 ft | 13 kts | 208° |
| 2026-05-07 18:03 | 37.60992 | -122.38885 | 17 ft | 11 kts | 208° |
| 2026-05-07 18:04 | 37.60934 | -122.38875 | 17 ft | 10 kts | 130° |
| 2026-05-07 18:04 | 37.60892 | -122.38781 | 18 ft | 14 kts | 117° |
| 2026-05-07 18:04 | 37.60842 | -122.38661 | 17 ft | 16 kts | 117° |
| 2026-05-07 18:04 | 37.60795 | -122.38549 | 18 ft | 13 kts | 118° |
| 2026-05-07 18:05 | 37.60736 | -122.38500 | 19 ft | 10 kts | 175° |
| 2026-05-07 18:05 | 37.60670 | -122.38469 | 21 ft | 11 kts | 134° |
| 2026-05-07 18:05 | 37.60609 | -122.38377 | 20 ft | 16 kts | 130° |
| 2026-05-07 18:05 | 37.60533 | -122.38266 | 22 ft | 17 kts | 125° |
| 2026-05-07 18:06 | 37.60505 | -122.38129 | 22 ft | 16 kts | 82° |
| 2026-05-07 18:06 | 37.60522 | -122.38007 | 22 ft | 13 kts | 74° |
| 2026-05-07 18:06 | 37.60583 | -122.37945 | 23 ft | 11 kts | 26° |
| 2026-05-07 18:06 | 37.60657 | -122.37896 | 22 ft | 14 kts | 28° |
| 2026-05-07 18:07 | 37.60750 | -122.37833 | 25 ft | 16 kts | 28° |
| 2026-05-07 18:07 | 37.60858 | -122.37760 | 22 ft | 19 kts | 29° |
| 2026-05-07 18:07 | 37.60990 | -122.37674 | 20 ft | 22 kts | 27° |
| 2026-05-07 18:07 | 37.61125 | -122.37584 | 19 ft | 22 kts | 28° |
| 2026-05-07 18:08 | 37.61261 | -122.37495 | 20 ft | 21 kts | 27° |
| 2026-05-07 18:08 | 37.61376 | -122.37419 | 22 ft | 17 kts | 27° |
| 2026-05-07 18:08 | 37.61478 | -122.37351 | 22 ft | 16 kts | 28° |
| 2026-05-07 18:08 | 37.61547 | -122.37258 | 23 ft | 15 kts | 66° |
| 2026-05-07 18:09 | 37.61553 | -122.37122 | 22 ft | 17 kts | 106° |
| 2026-05-07 18:09 | 37.61497 | -122.36983 | 24 ft | 18 kts | 120° |
| 2026-05-07 18:09 | 37.61414 | -122.36851 | 20 ft | 21 kts | 130° |
| 2026-05-07 18:09 | 37.61330 | -122.36695 | 20 ft | 22 kts | 118° |
| 2026-05-07 18:10 | 37.61255 | -122.36515 | 15 ft | 24 kts | 118° |
| 2026-05-07 18:10 | 37.61177 | -122.36330 | 18 ft | 21 kts | 118° |
| 2026-05-07 18:10 | 37.61114 | -122.36181 | 17 ft | 14 kts | 118° |
| 2026-05-07 18:10 | 37.61071 | -122.36077 | 20 ft | 13 kts | 117° |
| 2026-05-07 18:11 | 37.61055 | -122.35965 | 19 ft | 14 kts | 75° |
| 2026-05-07 18:11 | 37.61098 | -122.35905 | 19 ft | 12 kts | 32° |
| 2026-05-07 18:11 | 37.61184 | -122.35883 | 19 ft | 11 kts | 322° |
| 2026-05-07 18:11 | 37.61213 | -122.35942 | 18 ft | 4 kts | 297° |
| 2026-05-07 18:12 | 37.61311 | -122.36177 | 16 ft | 66 kts | 298° |
| 2026-05-07 18:12 | 37.61634 | -122.36941 | 23 ft | 128 kts | 298° |
| 2026-05-07 18:12 | 37.62126 | -122.38111 | 165 ft | 162 kts | 297° |
| 2026-05-07 18:12 | 37.62640 | -122.39369 | 847 ft | 162 kts | 297° |
| 2026-05-07 18:13 | 37.63181 | -122.40618 | 1576 ft | 163 kts | 298° |
| 2026-05-07 18:13 | 37.63748 | -122.41916 | 2003 ft | 179 kts | 298° |
| 2026-05-07 18:13 | 37.64409 | -122.43406 | 2241 ft | 203 kts | 300° |
| 2026-05-07 18:13 | 37.65122 | -122.45011 | 2466 ft | 223 kts | 300° |
| 2026-05-07 18:14 | 37.65916 | -122.46796 | 2900 ft | 237 kts | 300° |
| 2026-05-07 18:14 | 37.66710 | -122.48616 | 3717 ft | 238 kts | 296° |
| 2026-05-07 18:14 | 37.67074 | -122.50707 | 4132 ft | 256 kts | 262° |
| 2026-05-07 18:14 | 37.66343 | -122.52763 | 4692 ft | 265 kts | 227° |
| 2026-05-07 18:15 | 37.64755 | -122.53935 | 5373 ft | 271 kts | 192° |
| 2026-05-07 18:15 | 37.62873 | -122.53829 | 6111 ft | 276 kts | 167° |
| 2026-05-07 18:15 | 37.61058 | -122.53006 | 6862 ft | 279 kts | 158° |
| 2026-05-07 18:15 | 37.59282 | -122.51995 | 7558 ft | 282 kts | 157° |
| 2026-05-07 18:16 | 37.57480 | -122.50999 | 8250 ft | 284 kts | 159° |
| 2026-05-07 18:16 | 37.55633 | -122.50083 | 8959 ft | 287 kts | 161° |
| 2026-05-07 18:16 | 37.53740 | -122.49249 | 9663 ft | 289 kts | 163° |
| 2026-05-07 18:16 | 37.51813 | -122.48477 | 10287 ft | 295 kts | 163° |
| 2026-05-07 18:17 | 37.49856 | -122.47404 | 10423 ft | 320 kts | 150° |
| 2026-05-07 18:17 | 37.48597 | -122.46289 | 10510 ft | 336 kts | 140° |
| 2026-05-07 18:17 | 37.46983 | -122.44040 | 10658 ft | 357 kts | 126° |
| 2026-05-07 18:17 | 37.45523 | -122.41459 | 11092 ft | 365 kts | 126° |
| 2026-05-07 18:18 | 37.44053 | -122.38885 | 11672 ft | 369 kts | 127° |
| 2026-05-07 18:18 | 37.42543 | -122.36255 | 12283 ft | 372 kts | 126° |
| 2026-05-07 18:18 | 37.41263 | -122.33416 | 12879 ft | 376 kts | 114° |
| 2026-05-07 18:18 | 37.40429 | -122.30280 | 13493 ft | 380 kts | 104° |
| 2026-05-07 18:19 | 37.39799 | -122.27037 | 14079 ft | 384 kts | 104° |
| 2026-05-07 18:19 | 37.39155 | -122.23758 | 14584 ft | 387 kts | 104° |
| 2026-05-07 18:19 | 37.38503 | -122.20458 | 15131 ft | 390 kts | 104° |
| 2026-05-07 18:19 | 37.37842 | -122.17134 | 15680 ft | 394 kts | 104° |
| 2026-05-07 18:20 | 37.37175 | -122.13789 | 16245 ft | 396 kts | 104° |
| 2026-05-07 18:20 | 37.36499 | -122.10408 | 16793 ft | 400 kts | 104° |
| 2026-05-07 18:20 | 37.35818 | -122.07001 | 17339 ft | 404 kts | 103° |
| 2026-05-07 18:20 | 37.35131 | -122.03565 | 17868 ft | 407 kts | 104° |
| 2026-05-07 18:21 | 37.34439 | -122.00106 | 18430 ft | 410 kts | 103° |
| 2026-05-07 18:21 | 37.33741 | -121.96623 | 18957 ft | 411 kts | 103° |
| 2026-05-07 18:21 | 37.33040 | -121.93127 | 19440 ft | 414 kts | 103° |
| 2026-05-07 18:21 | 37.32333 | -121.89607 | 19919 ft | 417 kts | 103° |
| 2026-05-07 18:22 | 37.31616 | -121.86063 | 20405 ft | 420 kts | 103° |
| 2026-05-07 18:22 | 37.31130 | -121.83664 | 20717 ft | 421 kts | 103° |
| 2026-05-07 18:22 | 37.30166 | -121.78921 | 21340 ft | 424 kts | 103° |
| 2026-05-07 18:22 | 37.29438 | -121.75324 | 21805 ft | 426 kts | 103° |
| 2026-05-07 18:23 | 37.28706 | -121.71705 | 22255 ft | 428 kts | 103° |
| 2026-05-07 18:23 | 37.27968 | -121.68068 | 22697 ft | 431 kts | 103° |
| 2026-05-07 18:23 | 37.27227 | -121.64420 | 23111 ft | 433 kts | 103° |
| 2026-05-07 18:23 | 37.26479 | -121.60752 | 23499 ft | 435 kts | 103° |
| 2026-05-07 18:24 | 37.25725 | -121.57062 | 23876 ft | 437 kts | 103° |
| 2026-05-07 18:24 | 37.24966 | -121.53359 | 24226 ft | 440 kts | 103° |
| 2026-05-07 18:24 | 37.24199 | -121.49635 | 24582 ft | 441 kts | 104° |
| 2026-05-07 18:24 | 37.23429 | -121.45904 | 24948 ft | 443 kts | 104° |
| 2026-05-07 18:25 | 37.22656 | -121.42152 | 25297 ft | 445 kts | 103° |
| 2026-05-07 18:25 | 37.21880 | -121.38385 | 25630 ft | 447 kts | 103° |
| 2026-05-07 18:25 | 37.21102 | -121.34601 | 25973 ft | 449 kts | 103° |
| 2026-05-07 18:25 | 37.20319 | -121.30805 | 26296 ft | 451 kts | 103° |
| 2026-05-07 18:26 | 37.19529 | -121.26991 | 26610 ft | 453 kts | 104° |
| 2026-05-07 18:26 | 37.18732 | -121.23160 | 26919 ft | 455 kts | 104° |
| 2026-05-07 18:26 | 37.17931 | -121.19312 | 27219 ft | 457 kts | 103° |
| 2026-05-07 18:26 | 37.17127 | -121.15455 | 27531 ft | 458 kts | 104° |
| 2026-05-07 18:27 | 37.16316 | -121.11577 | 27850 ft | 460 kts | 104° |
| 2026-05-07 18:27 | 37.15503 | -121.07681 | 28155 ft | 463 kts | 104° |
| 2026-05-07 18:27 | 37.14686 | -121.03771 | 28456 ft | 465 kts | 104° |
| 2026-05-07 18:27 | 37.13865 | -120.99853 | 28772 ft | 467 kts | 104° |
| 2026-05-07 18:28 | 37.13032 | -120.95908 | 29073 ft | 468 kts | 104° |
| 2026-05-07 18:28 | 37.12193 | -120.91960 | 29431 ft | 469 kts | 104° |
| 2026-05-07 18:28 | 37.11355 | -120.88019 | 29819 ft | 468 kts | 104° |
| 2026-05-07 18:28 | 37.10519 | -120.84083 | 30214 ft | 468 kts | 104° |
| 2026-05-07 18:29 | 37.09686 | -120.80149 | 30562 ft | 467 kts | 104° |
| 2026-05-07 18:29 | 37.08857 | -120.76220 | 30921 ft | 465 kts | 104° |
| 2026-05-07 18:29 | 37.08046 | -120.72363 | 31311 ft | 463 kts | 104° |
| 2026-05-07 18:29 | 37.07213 | -120.68422 | 31667 ft | 462 kts | 104° |
| 2026-05-07 18:30 | 37.06397 | -120.64588 | 32024 ft | 461 kts | 104° |
| 2026-05-07 18:30 | 37.05556 | -120.60676 | 32397 ft | 459 kts | 104° |
| 2026-05-07 18:30 | 37.04725 | -120.56813 | 32734 ft | 458 kts | 104° |
| 2026-05-07 18:30 | 37.03902 | -120.52970 | 33063 ft | 458 kts | 104° |
| 2026-05-07 18:31 | 37.03079 | -120.49128 | 33387 ft | 457 kts | 104° |
| 2026-05-07 18:31 | 37.02266 | -120.45341 | 33712 ft | 456 kts | 104° |
| 2026-05-07 18:31 | 37.01442 | -120.41514 | 34053 ft | 455 kts | 104° |
| 2026-05-07 18:31 | 37.00617 | -120.37700 | 34345 ft | 454 kts | 104° |
| 2026-05-07 18:32 | 36.99791 | -120.33884 | 34609 ft | 454 kts | 104° |
| 2026-05-07 18:32 | 36.98967 | -120.30076 | 34862 ft | 453 kts | 104° |
| 2026-05-07 18:32 | 36.98143 | -120.26275 | 35072 ft | 454 kts | 104° |
| 2026-05-07 18:33 | 36.96488 | -120.18658 | 35135 ft | 453 kts | 104° |
| 2026-05-07 18:33 | 36.94829 | -120.11063 | 35142 ft | 453 kts | 104° |
| 2026-05-07 18:34 | 36.93167 | -120.03480 | 35137 ft | 452 kts | 104° |
| 2026-05-07 18:34 | 36.91513 | -119.95895 | 35130 ft | 452 kts | 101° |
| 2026-05-07 18:35 | 36.91100 | -119.88081 | 35131 ft | 448 kts | 83° |
| 2026-05-07 18:35 | 36.92711 | -119.80609 | 35142 ft | 447 kts | 67° |
| 2026-05-07 18:36 | 36.95071 | -119.73419 | 35138 ft | 448 kts | 67° |
| 2026-05-07 18:36 | 36.97412 | -119.66254 | 35136 ft | 448 kts | 67° |
| 2026-05-07 18:37 | 36.99765 | -119.59029 | 35139 ft | 449 kts | 67° |
| 2026-05-07 18:37 | 37.02131 | -119.51745 | 35134 ft | 449 kts | 67° |
| 2026-05-07 18:38 | 37.04484 | -119.44501 | 35140 ft | 449 kts | 67° |
| 2026-05-07 18:38 | 37.06814 | -119.37301 | 35140 ft | 449 kts | 67° |
| 2026-05-07 18:39 | 37.09152 | -119.30039 | 35136 ft | 449 kts | 67° |
| 2026-05-07 18:39 | 37.11488 | -119.22783 | 35145 ft | 449 kts | 66° |
| 2026-05-07 18:40 | 37.13813 | -119.15526 | 35153 ft | 449 kts | 67° |
| 2026-05-07 18:40 | 37.16140 | -119.08273 | 35150 ft | 448 kts | 66° |
| 2026-05-07 18:41 | 37.18464 | -119.01021 | 35149 ft | 448 kts | 67° |
| 2026-05-07 18:41 | 37.20776 | -118.93766 | 35158 ft | 448 kts | 67° |
| 2026-05-07 18:42 | 37.23082 | -118.86504 | 35149 ft | 448 kts | 66° |
| 2026-05-07 18:42 | 37.25377 | -118.79247 | 35148 ft | 447 kts | 67° |
| 2026-05-07 18:43 | 37.27492 | -118.71888 | 35139 ft | 449 kts | 75° |
| 2026-05-07 18:43 | 37.28293 | -118.64102 | 35141 ft | 451 kts | 83° |
| 2026-05-07 18:44 | 37.28892 | -118.56267 | 35158 ft | 451 kts | 83° |
| 2026-05-07 18:44 | 37.29485 | -118.48421 | 35177 ft | 451 kts | 83° |
| 2026-05-07 18:45 | 37.30078 | -118.40584 | 35187 ft | 451 kts | 83° |
| 2026-05-07 18:45 | 37.30669 | -118.32751 | 35191 ft | 450 kts | 83° |
| 2026-05-07 18:46 | 37.31253 | -118.24907 | 35181 ft | 450 kts | 83° |
| 2026-05-07 18:46 | 37.31831 | -118.17078 | 35151 ft | 450 kts | 83° |
| 2026-05-07 18:47 | 37.32400 | -118.09246 | 35041 ft | 450 kts | 83° |
| 2026-05-07 18:47 | 37.32965 | -118.01415 | 35052 ft | 450 kts | 83° |
| 2026-05-07 18:48 | 37.33528 | -117.93591 | 35053 ft | 449 kts | 83° |
| 2026-05-07 18:48 | 37.34085 | -117.85766 | 35051 ft | 449 kts | 83° |
| 2026-05-07 18:49 | 37.34629 | -117.78001 | 35056 ft | 449 kts | 83° |
| 2026-05-07 18:49 | 37.35179 | -117.70127 | 35056 ft | 449 kts | 83° |
| 2026-05-07 18:50 | 37.35715 | -117.62362 | 35051 ft | 449 kts | 83° |
| 2026-05-07 18:50 | 37.36254 | -117.54546 | 35009 ft | 449 kts | 83° |
| 2026-05-07 18:50 | 37.36522 | -117.50635 | 34762 ft | 448 kts | 83° |
| 2026-05-07 18:51 | 37.36788 | -117.46728 | 34540 ft | 449 kts | 83° |
| 2026-05-07 18:51 | 37.37048 | -117.42822 | 34303 ft | 449 kts | 83° |
| 2026-05-07 18:51 | 37.37308 | -117.38896 | 33597 ft | 453 kts | 83° |
| 2026-05-07 18:51 | 37.37545 | -117.34918 | 32740 ft | 458 kts | 86° |
| 2026-05-07 18:52 | 37.37357 | -117.30896 | 31881 ft | 465 kts | 97° |
| 2026-05-07 18:52 | 37.36557 | -117.26943 | 31289 ft | 467 kts | 108° |
| 2026-05-07 18:52 | 37.35190 | -117.23232 | 31074 ft | 469 kts | 118° |
| 2026-05-07 18:53 | 37.31147 | -117.16744 | 30357 ft | 478 kts | 129° |
| 2026-05-07 18:53 | 37.28920 | -117.13609 | 29494 ft | 480 kts | 130° |
| 2026-05-07 18:53 | 37.26691 | -117.10509 | 29214 ft | 477 kts | 130° |
| 2026-05-07 18:53 | 37.24462 | -117.07434 | 29047 ft | 475 kts | 130° |
| 2026-05-07 18:54 | 37.22230 | -117.04370 | 28972 ft | 475 kts | 130° |
| 2026-05-07 18:54 | 37.17783 | -116.98249 | 28680 ft | 474 kts | 130° |
| 2026-05-07 18:54 | 37.15577 | -116.95197 | 28428 ft | 471 kts | 130° |
| 2026-05-07 18:55 | 37.13381 | -116.92152 | 28174 ft | 470 kts | 130° |
| 2026-05-07 18:55 | 37.11184 | -116.89135 | 27923 ft | 469 kts | 132° |
| 2026-05-07 18:55 | 37.08742 | -116.86427 | 27675 ft | 469 kts | 141° |
| 2026-05-07 18:55 | 37.06069 | -116.84090 | 27415 ft | 469 kts | 144° |
| 2026-05-07 18:56 | 37.03386 | -116.81785 | 27165 ft | 467 kts | 143° |
| 2026-05-07 18:56 | 37.00715 | -116.79494 | 26913 ft | 465 kts | 144° |
| 2026-05-07 18:56 | 36.98048 | -116.77211 | 26667 ft | 463 kts | 144° |
| 2026-05-07 18:56 | 36.95391 | -116.74938 | 26402 ft | 462 kts | 144° |
| 2026-05-07 18:57 | 36.92744 | -116.72677 | 26166 ft | 460 kts | 144° |
| 2026-05-07 18:57 | 36.90102 | -116.70419 | 25918 ft | 459 kts | 143° |
| 2026-05-07 18:57 | 36.87475 | -116.68171 | 25658 ft | 457 kts | 143° |
| 2026-05-07 18:57 | 36.84857 | -116.65928 | 25416 ft | 455 kts | 143° |
| 2026-05-07 18:58 | 36.82254 | -116.63695 | 25183 ft | 454 kts | 144° |
| 2026-05-07 18:58 | 36.80529 | -116.62217 | 24999 ft | 453 kts | 144° |
| 2026-05-07 18:58 | 36.77938 | -116.60004 | 24765 ft | 451 kts | 144° |
| 2026-05-07 18:58 | 36.75345 | -116.57794 | 24528 ft | 450 kts | 144° |
| 2026-05-07 18:59 | 36.72767 | -116.55600 | 24282 ft | 449 kts | 144° |
| 2026-05-07 18:59 | 36.70190 | -116.53411 | 24035 ft | 448 kts | 144° |
| 2026-05-07 18:59 | 36.67622 | -116.51230 | 23793 ft | 446 kts | 144° |
| 2026-05-07 18:59 | 36.65159 | -116.48920 | 23556 ft | 442 kts | 136° |
| 2026-05-07 19:00 | 36.63025 | -116.46195 | 23297 ft | 438 kts | 129° |
| 2026-05-07 19:00 | 36.61023 | -116.43341 | 23062 ft | 437 kts | 129° |
| 2026-05-07 19:00 | 36.59023 | -116.40498 | 22837 ft | 435 kts | 129° |
| 2026-05-07 19:00 | 36.57029 | -116.37674 | 22608 ft | 434 kts | 129° |
| 2026-05-07 19:01 | 36.55036 | -116.34859 | 22373 ft | 432 kts | 129° |
| 2026-05-07 19:01 | 36.53051 | -116.32058 | 22137 ft | 431 kts | 129° |
| 2026-05-07 19:01 | 36.51077 | -116.29274 | 21895 ft | 428 kts | 129° |
| 2026-05-07 19:01 | 36.49115 | -116.26507 | 21677 ft | 426 kts | 129° |
| 2026-05-07 19:02 | 36.47166 | -116.23762 | 21474 ft | 417 kts | 129° |
| 2026-05-07 19:02 | 36.45279 | -116.21111 | 21216 ft | 403 kts | 129° |
| 2026-05-07 19:02 | 36.43452 | -116.18543 | 20810 ft | 399 kts | 129° |
| 2026-05-07 19:02 | 36.41627 | -116.15978 | 20565 ft | 394 kts | 129° |
| 2026-05-07 19:03 | 36.39812 | -116.13428 | 20477 ft | 394 kts | 129° |
| 2026-05-07 19:03 | 36.38001 | -116.10886 | 20378 ft | 393 kts | 129° |
| 2026-05-07 19:03 | 36.36188 | -116.08347 | 20207 ft | 392 kts | 129° |
| 2026-05-07 19:03 | 36.34387 | -116.05828 | 19987 ft | 389 kts | 129° |
| 2026-05-07 19:04 | 36.32594 | -116.03319 | 19771 ft | 388 kts | 129° |
| 2026-05-07 19:04 | 36.30806 | -116.00818 | 19575 ft | 387 kts | 129° |
| 2026-05-07 19:04 | 36.29037 | -115.98348 | 19375 ft | 376 kts | 129° |
| 2026-05-07 19:04 | 36.27339 | -115.95984 | 19247 ft | 358 kts | 129° |
| 2026-05-07 19:05 | 36.25707 | -115.93714 | 18935 ft | 350 kts | 129° |
| 2026-05-07 19:05 | 36.24128 | -115.91453 | 18662 ft | 344 kts | 127° |
| 2026-05-07 19:05 | 36.22615 | -115.89121 | 18446 ft | 342 kts | 125° |
| 2026-05-07 19:05 | 36.21183 | -115.86820 | 18037 ft | 341 kts | 124° |
| 2026-05-07 19:06 | 36.19750 | -115.84490 | 17697 ft | 338 kts | 125° |
| 2026-05-07 19:06 | 36.16905 | -115.79904 | 17011 ft | 332 kts | 125° |
| 2026-05-07 19:06 | 36.15495 | -115.77656 | 16680 ft | 330 kts | 126° |
| 2026-05-07 19:07 | 36.14152 | -115.75381 | 16366 ft | 326 kts | 118° |
| 2026-05-07 19:07 | 36.13189 | -115.72871 | 16031 ft | 321 kts | 107° |
| 2026-05-07 19:07 | 36.12408 | -115.70287 | 15718 ft | 320 kts | 108° |
| 2026-05-07 19:07 | 36.11622 | -115.67718 | 15398 ft | 318 kts | 108° |
| 2026-05-07 19:08 | 36.10833 | -115.65161 | 15070 ft | 317 kts | 109° |
| 2026-05-07 19:08 | 36.10045 | -115.62617 | 14759 ft | 316 kts | 109° |
| 2026-05-07 19:08 | 36.09260 | -115.60085 | 14439 ft | 315 kts | 109° |
| 2026-05-07 19:08 | 36.08478 | -115.57564 | 14123 ft | 313 kts | 109° |
| 2026-05-07 19:09 | 36.07700 | -115.55055 | 13795 ft | 311 kts | 109° |
| 2026-05-07 19:09 | 36.06930 | -115.52561 | 13464 ft | 311 kts | 109° |
| 2026-05-07 19:09 | 36.06163 | -115.50071 | 13146 ft | 310 kts | 109° |
| 2026-05-07 19:09 | 36.05396 | -115.47586 | 12845 ft | 308 kts | 109° |
| 2026-05-07 19:10 | 36.04635 | -115.45122 | 12533 ft | 306 kts | 109° |
| 2026-05-07 19:10 | 36.03878 | -115.42674 | 12222 ft | 305 kts | 109° |
| 2026-05-07 19:10 | 36.03120 | -115.40231 | 11917 ft | 304 kts | 109° |
| 2026-05-07 19:10 | 36.02362 | -115.37796 | 11606 ft | 303 kts | 109° |
| 2026-05-07 19:11 | 36.01709 | -115.35323 | 11305 ft | 301 kts | 99° |
| 2026-05-07 19:11 | 36.01485 | -115.32802 | 11008 ft | 299 kts | 91° |
| 2026-05-07 19:11 | 36.01367 | -115.30237 | 10707 ft | 299 kts | 91° |
| 2026-05-07 19:11 | 36.01244 | -115.27676 | 10411 ft | 298 kts | 91° |
| 2026-05-07 19:12 | 36.01118 | -115.25085 | 10122 ft | 298 kts | 91° |
| 2026-05-07 19:12 | 36.00992 | -115.22534 | 9809 ft | 297 kts | 91° |
| 2026-05-07 19:12 | 36.00863 | -115.19994 | 9503 ft | 296 kts | 91° |
| 2026-05-07 19:12 | 36.00736 | -115.17519 | 9397 ft | 280 kts | 91° |
| 2026-05-07 19:13 | 36.00616 | -115.15196 | 9288 ft | 270 kts | 91° |
| 2026-05-07 19:13 | 36.00498 | -115.12891 | 9176 ft | 262 kts | 91° |
| 2026-05-07 19:13 | 36.00388 | -115.10688 | 9061 ft | 257 kts | 91° |
| 2026-05-07 19:13 | 36.00278 | -115.08481 | 8819 ft | 253 kts | 91° |
| 2026-05-07 19:14 | 36.00171 | -115.06328 | 8573 ft | 249 kts | 91° |
| 2026-05-07 19:14 | 36.00065 | -115.04234 | 8342 ft | 247 kts | 91° |
| 2026-05-07 19:14 | 35.99955 | -115.02125 | 8106 ft | 245 kts | 92° |
| 2026-05-07 19:14 | 35.99873 | -115.00028 | 7866 ft | 243 kts | 90° |
| 2026-05-07 19:15 | 35.99849 | -114.97948 | 7495 ft | 241 kts | 88° |
| 2026-05-07 19:15 | 35.99847 | -114.95890 | 7196 ft | 238 kts | 88° |
| 2026-05-07 19:15 | 35.99908 | -114.93864 | 6889 ft | 234 kts | 76° |
| 2026-05-07 19:15 | 36.00593 | -114.92094 | 6585 ft | 228 kts | 49° |
| 2026-05-07 19:16 | 36.01800 | -114.90856 | 6278 ft | 226 kts | 28° |
| 2026-05-07 19:16 | 36.03285 | -114.90262 | 5969 ft | 224 kts | 6° |
| 2026-05-07 19:16 | 36.04791 | -114.90447 | 5698 ft | 214 kts | 342° |
| 2026-05-07 19:16 | 36.06067 | -114.91297 | 5389 ft | 205 kts | 323° |
| 2026-05-07 19:17 | 36.06978 | -114.92593 | 5122 ft | 198 kts | 299° |
| 2026-05-07 19:17 | 36.07333 | -114.94188 | 4877 ft | 191 kts | 274° |
| 2026-05-07 19:17 | 36.07359 | -114.95797 | 4640 ft | 183 kts | 271° |
| 2026-05-07 19:17 | 36.07361 | -114.97336 | 4441 ft | 177 kts | 271° |
| 2026-05-07 19:18 | 36.07363 | -114.98834 | 4209 ft | 173 kts | 271° |
| 2026-05-07 19:18 | 36.07364 | -115.00312 | 3988 ft | 171 kts | 271° |
| 2026-05-07 19:18 | 36.07364 | -115.01751 | 3796 ft | 164 kts | 270° |
| 2026-05-07 19:18 | 36.07365 | -115.03140 | 3580 ft | 161 kts | 270° |
| 2026-05-07 19:19 | 36.07366 | -115.04517 | 3385 ft | 160 kts | 270° |
| 2026-05-07 19:19 | 36.07366 | -115.05889 | 3182 ft | 159 kts | 270° |
| 2026-05-07 19:19 | 36.07366 | -115.07253 | 2976 ft | 158 kts | 270° |
| 2026-05-07 19:19 | 36.07365 | -115.08613 | 2749 ft | 158 kts | 269° |
| 2026-05-07 19:20 | 36.07367 | -115.09977 | 2552 ft | 158 kts | 270° |
| 2026-05-07 19:20 | 36.07367 | -115.11339 | 2344 ft | 158 kts | 270° |
| 2026-05-07 19:20 | 36.07367 | -115.12695 | 2155 ft | 157 kts | 270° |
| 2026-05-07 19:20 | 36.07365 | -115.13926 | 2124 ft | 121 kts | 270° |
| 2026-05-07 19:21 | 36.07365 | -115.14600 | 2127 ft | 47 kts | 270° |
| 2026-05-07 19:21 | 36.07391 | -115.14848 | 2127 ft | 21 kts | 287° |
| 2026-05-07 19:21 | 36.07444 | -115.14997 | 2122 ft | 17 kts | 298° |
| 2026-05-07 19:21 | 36.07495 | -115.15091 | 2121 ft | 11 kts | 313° |
| 2026-05-07 19:22 | 36.07518 | -115.15118 | 2122 ft | 0 kts | 320° |
| 2026-05-07 19:23 | 36.07529 | -115.15127 | 2123 ft | 7 kts | 324° |
| 2026-05-07 19:23 | 36.07590 | -115.15169 | 2125 ft | 11 kts | 333° |
| 2026-05-07 19:23 | 36.07667 | -115.15213 | 2127 ft | 15 kts | 335° |
| 2026-05-07 19:23 | 36.07761 | -115.15261 | 2127 ft | 13 kts | 353° |
| 2026-05-07 19:24 | 36.07804 | -115.15180 | 2128 ft | 14 kts | 89° |
| 2026-05-07 19:24 | 36.07800 | -115.15041 | 2129 ft | 19 kts | 94° |
| 2026-05-07 19:24 | 36.07788 | -115.14876 | 2125 ft | 20 kts | 95° |
| 2026-05-07 19:24 | 36.07776 | -115.14699 | 2120 ft | 21 kts | 95° |
| 2026-05-07 19:25 | 36.07765 | -115.14527 | 2120 ft | 18 kts | 95° |
| 2026-05-07 19:25 | 36.07756 | -115.14384 | 2121 ft | 15 kts | 92° |
| 2026-05-07 19:25 | 36.07753 | -115.14258 | 2120 ft | 16 kts | 90° |
| 2026-05-07 19:25 | 36.07753 | -115.14113 | 2120 ft | 17 kts | 90° |
| 2026-05-07 19:26 | 36.07753 | -115.13971 | 2123 ft | 15 kts | 90° |
| 2026-05-07 19:26 | 36.07754 | -115.13857 | 2125 ft | 11 kts | 90° |
| 2026-05-07 19:26 | 36.07786 | -115.13795 | 2125 ft | 9 kts | 20° |
| 2026-05-07 19:26 | 36.07826 | -115.13732 | 2123 ft | 12 kts | 84° |
| 2026-05-07 19:27 | 36.07827 | -115.13630 | 2123 ft | 11 kts | 86° |
| 2026-05-07 19:27 | 36.07873 | -115.13585 | 2123 ft | 9 kts | 356° |
| 2026-05-07 19:27 | 36.07921 | -115.13626 | 2122 ft | 8 kts | 317° |
| 2026-05-07 19:27 | 36.07964 | -115.13608 | 2123 ft | 7 kts | 39° |
| 2026-05-07 19:28 | 36.07987 | -115.13583 | 2120 ft | 1 kts | 41° |
| 2026-05-07 19:28 | 36.07994 | -115.13576 | 2121 ft | 1 kts | 41° |
| 2026-05-07 19:28 | 36.07994 | -115.13575 | 2121 ft | 0 kts | 41° |
| 2026-05-07 20:49 | 0.01342 | 0.00000 | 53808 ft | 0 kts | 0° |